KMBL

Manistee Co-Blacker Airport

Manistee, Michigan, USA
KMBL 161741Z 1618/1718 31011KT P6SM FEW010 SCT050 FM162100 31008KT P6SM SKC FM170300 31008KT P6SM FEW250 FM170500 36006KT P6SM FEW250
Issued Valid From Valid To
Jul-16 @ 17:41 UTC
(3 hours ago)
Jul-16 @ 18:00 UTC
(2 hours ago)
Jul-17 @ 18:00 UTC
(in 22 hours)
Jul-16 @ 18:00 to Jul-16 @ 21:00
KMBL 161741Z 1618/1718 31011KT P6SM FEW010 SCT050
Wind Visibility Clouds
310° at 11 knots Greater than 6 miles
  • Few at 1,000' AGL
  • Scattered at 5,000' AGL
From Jul-16 @ 21:00 to Jul-17 @ 03:00
FM162100 31008KT P6SM SKC
Wind Visibility Clouds
310° at 8 knots Greater than 6 miles
  • Clear skies
From Jul-17 @ 03:00 to Jul-17 @ 05:00
FM170300 31008KT P6SM FEW250
Wind Visibility Clouds
310° at 8 knots Greater than 6 miles
  • Few at 25,000' AGL
From Jul-17 @ 05:00 to Jul-17 @ 18:00
FM170500 36006KT P6SM FEW250
Wind Visibility Clouds
360° at 6 knots Greater than 6 miles
  • Few at 25,000' AGL
KMBL 161741Z 1618/1718 31011KT P6SM FEW010 SCT050 FM162100 31008KT P6SM SKC FM170300 31008KT P6SM FEW250 FM170500 36006KT P6SM FEW250
Issued Jul-16 @ 17:41 UTC
(3 hours ago)
Valid From Jul-16 @ 18:00 UTC
(2 hours ago)
Valid To Jul-17 @ 18:00 UTC
(in 22 hours)
Jul-16 @ 18:00 - Jul-16 @ 21:00
Wind Visibility
310° at 11 knots Greater than 6 miles
Clouds
  • Few at 1,000' AGL
  • Scattered at 5,000' AGL
From Jul-16 @ 21:00 - Jul-17 @ 03:00
Wind Visibility
310° at 8 knots Greater than 6 miles
Clouds
  • Clear skies
From Jul-17 @ 03:00 - Jul-17 @ 05:00
Wind Visibility
310° at 8 knots Greater than 6 miles
Clouds
  • Few at 25,000' AGL
From Jul-17 @ 05:00 - Jul-17 @ 18:00
Wind Visibility
360° at 6 knots Greater than 6 miles
Clouds
  • Few at 25,000' AGL